Terminal Aerodrome Forecast
Issued by NWS

Home | Current Version | Previous Version | Text Only | Print | Product List | Glossary On
Versions: 1 2 3 4 5 6 7 8 9 10 11 12 13 14 15 16 17 18 19 20 21 22 23 24 25
000
FTUS43 KICT 151357 AAA
TAFSLN
TAF AMD
KSLN 151357Z 1514/1612 31025G30KT P6SM OVC013
     FM151700 32025G30KT P6SM OVC025
     FM152000 31022G30KT P6SM OVC035=

USA.gov is the U.S. government's official web portal to all federal, state and local government web resources and services.